createdAt,value
2023-04-15T00:00:39.324Z,574.0000
2023-04-15T00:01:43.276Z,573.4167
2023-04-15T00:02:47.318Z,575.0000
2023-04-15T00:03:51.460Z,574.1667
2023-04-15T00:04:55.711Z,574.3333
2023-04-15T00:05:59.577Z,571.8333
2023-04-15T00:07:03.699Z,574.1667
2023-04-15T00:08:07.584Z,571.6667
2023-04-15T00:09:11.469Z,568.7500
2023-04-15T00:10:15.365Z,572.0833
2023-04-15T00:11:19.269Z,572.0000
2023-04-15T00:12:23.155Z,574.1667
2023-04-15T00:13:27.055Z,574.2500
2023-04-15T00:14:31.170Z,575.0000
2023-04-15T00:15:35.064Z,575.2500
2023-04-15T00:16:39.072Z,578.0000
2023-04-15T00:17:43.015Z,570.4167
2023-04-15T00:18:46.914Z,573.1667
2023-04-15T00:19:50.783Z,575.4167
2023-04-15T00:20:54.692Z,577.0000
2023-04-15T00:21:58.816Z,580.9167
2023-04-15T00:23:02.684Z,579.5833
2023-04-15T00:24:06.557Z,577.0000
2023-04-15T00:25:10.479Z,577.4167
2023-04-15T00:26:14.377Z,576.7500
2023-04-15T00:27:18.255Z,579.0833
2023-04-15T00:28:22.141Z,578.2500
2023-04-15T00:29:26.051Z,576.0000
2023-04-15T00:30:29.959Z,580.7500
2023-04-15T00:31:33.972Z,581.0833
2023-04-15T00:32:37.926Z,577.9167
2023-04-15T00:33:41.783Z,580.4167
2023-04-15T00:34:45.924Z,578.3333
2023-04-15T00:35:49.805Z,576.3333
2023-04-15T00:36:53.933Z,580.1667
2023-04-15T00:37:57.809Z,582.8333
2023-04-15T00:39:01.843Z,581.5833
2023-04-15T00:40:05.821Z,585.2500
2023-04-15T00:41:09.705Z,582.7500
2023-04-15T00:42:13.605Z,582.2500
2023-04-15T00:43:17.487Z,585.1667
2023-04-15T00:44:21.608Z,586.9167
2023-04-15T00:45:25.470Z,588.5000
2023-04-15T00:46:29.381Z,589.5000
2023-04-15T00:47:33.276Z,590.7500
2023-04-15T00:48:37.167Z,589.3333
2023-04-15T00:49:41.044Z,587.4167
2023-04-15T00:50:44.968Z,588.7500
2023-04-15T00:51:48.839Z,584.4167
2023-04-15T00:52:52.753Z,588.2500
2023-04-15T00:53:56.627Z,589.2500
2023-04-15T00:55:00.775Z,591.3333
2023-04-15T00:56:04.681Z,594.0000
2023-04-15T00:57:08.561Z,597.5000
2023-04-15T00:58:12.464Z,597.0000
2023-04-15T00:59:16.342Z,591.9167
2023-04-15T01:00:20.250Z,591.4167
2023-04-15T01:01:24.466Z,594.6667
2023-04-15T01:02:28.519Z,593.6667
2023-04-15T01:03:32.652Z,593.6667
2023-04-15T01:04:36.848Z,591.9167
2023-04-15T01:05:40.758Z,593.2500
2023-04-15T01:06:41.199Z,593.2727
2023-04-15T01:07:45.073Z,594.6667
2023-04-15T01:08:48.956Z,593.8333
2023-04-15T01:09:52.841Z,595.0833
2023-04-15T01:10:56.736Z,594.7500
2023-04-15T01:12:00.624Z,592.5000
2023-04-15T01:13:04.535Z,595.2500
2023-04-15T01:14:08.418Z,594.8333
2023-04-15T01:15:12.333Z,594.9167
2023-04-15T01:16:16.269Z,595.9167
2023-04-15T01:17:20.191Z,593.5000
2023-04-15T01:18:24.052Z,595.5833
2023-04-15T01:19:27.952Z,597.5000
2023-04-15T01:20:31.833Z,595.1667
2023-04-15T01:21:35.979Z,596.5000
2023-04-15T01:22:39.867Z,600.2500
2023-04-15T01:23:43.759Z,600.5833
2023-04-15T01:24:47.649Z,601.5000
2023-04-15T01:25:51.543Z,600.3333
2023-04-15T01:26:55.447Z,599.1667
2023-04-15T01:27:59.337Z,597.8333
2023-04-15T01:29:03.241Z,597.2500
2023-04-15T01:30:07.116Z,604.6667
2023-04-15T01:31:11.089Z,601.6667
2023-04-15T01:32:15.007Z,600.5000
2023-04-15T01:33:18.889Z,600.3333
2023-04-15T01:34:22.783Z,603.0833
2023-04-15T01:35:26.664Z,600.1667
2023-04-15T01:36:30.573Z,599.3333
2023-04-15T01:37:34.697Z,604.6667
2023-04-15T01:38:38.587Z,601.1667
2023-04-15T01:39:42.478Z,597.8333
2023-04-15T01:40:46.382Z,602.4167
2023-04-15T01:41:50.491Z,603.9167
2023-04-15T01:42:54.401Z,602.1667
2023-04-15T01:43:58.278Z,602.7500
2023-04-15T01:45:02.200Z,604.7500
2023-04-15T01:46:06.070Z,605.0833
2023-04-15T01:47:10.191Z,604.0833
2023-04-15T01:48:14.092Z,603.9167
2023-04-15T01:49:17.985Z,603.8333
2023-04-15T01:50:21.888Z,604.5833
2023-04-15T01:51:25.761Z,605.4167
2023-04-15T01:52:29.903Z,604.1667
2023-04-15T01:53:33.786Z,607.4167
2023-04-15T01:54:37.714Z,603.5000
2023-04-15T01:55:41.589Z,601.8333
2023-04-15T01:56:41.927Z,606.3636
2023-04-15T01:57:45.818Z,606.7500
2023-04-15T01:58:49.726Z,604.0000
2023-04-15T01:59:53.612Z,603.5833
2023-04-15T02:00:57.586Z,603.1667
2023-04-15T02:02:01.462Z,606.6667
2023-04-15T02:03:05.577Z,610.1667
2023-04-15T02:04:05.822Z,610.7273
2023-04-15T02:06:14.427Z,604.7500
2023-04-15T02:07:18.590Z,608.5000
2023-04-15T02:08:23.007Z,609.7500
2023-04-15T02:09:26.912Z,608.9167
2023-04-15T02:10:31.687Z,609.1818
2023-04-15T02:11:35.568Z,608.5833
2023-04-15T02:12:39.454Z,612.1667
2023-04-15T02:13:43.373Z,611.8333
2023-04-15T02:14:47.262Z,605.0833
2023-04-15T02:15:51.150Z,605.9167
2023-04-15T02:16:55.287Z,610.0833
2023-04-15T02:17:59.204Z,611.8333
2023-04-15T02:19:03.399Z,606.3333
2023-04-15T02:20:07.247Z,606.9167
2023-04-15T02:21:11.110Z,607.8333
2023-04-15T02:22:14.993Z,610.3333
2023-04-15T02:23:18.891Z,606.5000
2023-04-15T02:24:22.807Z,609.0000
2023-04-15T02:25:26.689Z,605.8333
2023-04-15T02:26:30.600Z,609.9167
2023-04-15T02:27:34.508Z,607.4167
2023-04-15T02:28:38.421Z,605.5833
2023-04-15T02:29:42.303Z,610.9167
2023-04-15T02:30:46.189Z,607.0000
2023-04-15T02:31:50.125Z,610.5833
2023-04-15T02:32:54.058Z,611.1667
2023-04-15T02:33:57.948Z,611.3333
2023-04-15T02:35:01.854Z,614.1667
2023-04-15T02:36:05.736Z,609.6667
2023-04-15T02:37:06.147Z,618.0909
2023-04-15T02:38:10.031Z,615.3333
2023-04-15T02:39:13.917Z,612.8333
2023-04-15T02:40:17.805Z,611.0000
2023-04-15T02:41:21.705Z,612.6667
2023-04-15T02:42:25.614Z,609.3333
2023-04-15T02:43:29.501Z,612.8333
2023-04-15T02:44:33.627Z,609.6667
2023-04-15T02:45:37.563Z,607.3333
2023-04-15T02:46:41.691Z,611.8333
2023-04-15T02:47:45.590Z,609.0833
2023-04-15T02:48:49.463Z,609.1667
2023-04-15T02:49:53.350Z,603.2500
2023-04-15T02:50:57.230Z,608.0833
2023-04-15T02:52:01.149Z,608.3333
2023-04-15T02:53:05.026Z,607.2500
2023-04-15T02:54:08.929Z,609.1667
2023-04-15T02:55:12.866Z,606.7500
2023-04-15T02:56:16.713Z,608.5000
2023-04-15T02:57:20.621Z,611.2500
2023-04-15T02:58:24.507Z,612.5000
2023-04-15T02:59:28.735Z,611.3333
2023-04-15T03:00:32.636Z,614.3333
2023-04-15T03:01:36.796Z,614.0000
2023-04-15T03:02:40.737Z,612.5833
2023-04-15T03:03:44.742Z,615.7500
2023-04-15T03:04:48.710Z,610.8333
2023-04-15T03:05:52.618Z,611.9167
2023-04-15T03:06:56.478Z,610.5000
2023-04-15T03:08:00.379Z,608.3333
2023-04-15T03:09:04.278Z,611.5000
2023-04-15T03:10:08.156Z,610.0000
2023-04-15T03:11:12.062Z,615.7500
2023-04-15T03:12:15.945Z,615.8333
2023-04-15T03:13:19.846Z,612.0833
2023-04-15T03:14:23.716Z,610.3333
2023-04-15T03:15:27.668Z,609.5000
2023-04-15T03:16:31.535Z,611.3333
2023-04-15T03:17:35.453Z,608.5000
2023-04-15T03:18:39.319Z,605.5833
2023-04-15T03:19:43.232Z,608.9167
2023-04-15T03:20:47.184Z,607.2500
2023-04-15T03:21:51.030Z,605.1667
2023-04-15T03:22:54.921Z,610.4167
2023-04-15T03:23:58.815Z,609.5833
2023-04-15T03:25:02.710Z,610.9167
2023-04-15T03:26:06.810Z,609.0833
2023-04-15T03:27:10.710Z,607.0000
2023-04-15T03:28:14.614Z,609.0000
2023-04-15T03:29:14.979Z,609.6364
2023-04-15T03:30:18.875Z,610.0833
2023-04-15T03:31:23.062Z,609.9167
2023-04-15T03:32:27.005Z,612.3333
2023-04-15T03:33:30.842Z,612.7500
2023-04-15T03:34:34.948Z,612.1667
2023-04-15T03:35:38.836Z,611.1667
2023-04-15T03:36:42.723Z,607.6667
2023-04-15T03:37:46.597Z,609.9167
2023-04-15T03:38:50.522Z,611.8333
2023-04-15T03:39:54.400Z,610.5000
2023-04-15T03:40:58.274Z,610.2500
2023-04-15T03:42:02.337Z,614.1667
2023-04-15T03:43:06.225Z,611.8333
2023-04-15T03:44:10.498Z,610.8333
2023-04-15T03:45:14.403Z,612.6667
2023-04-15T03:46:18.330Z,612.3333
2023-04-15T03:47:22.223Z,615.6667
2023-04-15T03:48:26.087Z,615.0833
2023-04-15T03:49:30.282Z,615.1667
2023-04-15T03:50:34.170Z,613.8333
2023-04-15T03:51:38.043Z,615.8333
2023-04-15T03:52:41.958Z,616.3333
2023-04-15T03:53:45.860Z,614.2500
2023-04-15T03:54:49.749Z,615.5000
2023-04-15T03:55:53.644Z,614.9167
2023-04-15T03:56:57.528Z,616.2500
2023-04-15T03:58:01.431Z,616.0833
2023-04-15T03:59:05.336Z,616.5833
2023-04-15T04:00:09.240Z,619.4167
2023-04-15T04:01:13.144Z,616.0833
2023-04-15T04:02:17.121Z,617.0833
2023-04-15T04:03:21.235Z,612.0000
2023-04-15T04:04:25.406Z,616.8333
2023-04-15T04:05:29.280Z,617.0000
2023-04-15T04:06:33.189Z,614.0833
2023-04-15T04:07:37.065Z,615.3333
2023-04-15T04:08:40.937Z,618.5000
2023-04-15T04:09:46.630Z,618.2500
2023-04-15T04:10:45.768Z,615.1818
2023-04-15T04:11:50.412Z,610.7500
2023-04-15T04:12:54.306Z,608.1667
2023-04-15T04:13:58.187Z,608.1667
2023-04-15T04:15:02.082Z,611.0000
2023-04-15T04:16:02.301Z,603.0000
2023-04-15T04:17:06.368Z,598.3333
2023-04-15T04:18:10.289Z,594.3333
2023-04-15T04:19:14.387Z,594.1667
2023-04-15T04:20:18.260Z,588.8333
2023-04-15T04:21:22.154Z,579.6667
2023-04-15T04:22:26.039Z,563.8333
2023-04-15T04:23:29.948Z,565.9167
2023-04-15T04:24:34.053Z,559.9167
2023-04-15T04:25:37.955Z,560.7500
2023-04-15T04:26:42.055Z,564.6667
2023-04-15T04:27:45.996Z,565.2500
2023-04-15T04:28:49.870Z,567.6667
2023-04-15T04:29:53.769Z,562.4167
2023-04-15T04:30:57.659Z,561.8333
2023-04-15T04:32:01.611Z,563.0000
2023-04-15T04:33:05.583Z,560.0833
2023-04-15T04:34:09.706Z,559.5833
2023-04-15T04:35:13.596Z,558.9167
2023-04-15T04:36:17.463Z,556.6667
2023-04-15T04:37:21.362Z,555.6667
2023-04-15T04:38:25.277Z,554.5000
2023-04-15T04:39:29.373Z,554.0833
2023-04-15T04:40:33.264Z,558.2500
2023-04-15T04:41:37.131Z,557.0000
2023-04-15T04:42:41.082Z,557.6667
2023-04-15T04:43:45.189Z,555.3333
2023-04-15T04:44:49.058Z,552.6667
2023-04-15T04:45:52.969Z,553.3333
2023-04-15T04:46:57.050Z,552.0000
2023-04-15T04:48:01.042Z,548.5833
2023-04-15T04:49:05.084Z,547.4167
2023-04-15T04:50:09.001Z,548.6667
2023-04-15T04:51:12.881Z,549.8333
2023-04-15T04:52:16.783Z,547.7500
2023-04-15T04:53:20.670Z,548.9167
2023-04-15T04:54:24.584Z,548.9167
2023-04-15T04:55:28.474Z,549.1667
2023-04-15T04:56:32.358Z,547.4167
2023-04-15T04:57:36.257Z,544.1667
2023-04-15T04:58:36.628Z,545.3636
2023-04-15T04:59:40.529Z,544.2500
2023-04-15T05:00:44.422Z,542.0833
2023-04-15T05:01:48.431Z,542.1667
2023-04-15T05:02:52.609Z,538.4167
2023-04-15T05:03:56.656Z,538.2500
2023-04-15T05:05:00.641Z,539.1667
2023-04-15T05:06:04.521Z,537.0833
2023-04-15T05:07:08.457Z,535.5000
2023-04-15T05:08:12.348Z,539.0833
2023-04-15T05:09:16.428Z,537.5833
2023-04-15T05:10:20.327Z,533.5833
2023-04-15T05:11:24.220Z,540.9167
2023-04-15T05:12:28.101Z,544.5000
2023-04-15T05:13:31.977Z,545.0833
2023-04-15T05:14:35.886Z,545.5000
2023-04-15T05:15:39.879Z,545.4167
2023-04-15T05:16:43.787Z,545.1667
2023-04-15T05:17:47.750Z,548.5833
2023-04-15T05:18:51.611Z,550.9167
2023-04-15T05:19:55.522Z,546.8333
2023-04-15T05:20:59.427Z,548.5000
2023-04-15T05:22:03.306Z,549.5000
2023-04-15T05:23:07.183Z,549.5833
2023-04-15T05:24:11.077Z,554.8333
2023-04-15T05:25:14.988Z,555.1667
2023-04-15T05:26:19.146Z,558.7500
2023-04-15T05:27:23.045Z,556.4167
2023-04-15T05:28:27.183Z,554.5833
2023-04-15T05:29:31.073Z,553.5833
2023-04-15T05:30:34.975Z,553.7500
2023-04-15T05:31:38.896Z,560.0000
2023-04-15T05:32:42.777Z,559.5833
2023-04-15T05:33:46.659Z,558.9167
2023-04-15T05:34:50.559Z,562.1667
2023-04-15T05:35:54.450Z,561.3333
2023-04-15T05:36:58.363Z,561.3333
2023-04-15T05:38:02.243Z,563.6667
2023-04-15T05:39:06.155Z,560.8333
2023-04-15T05:40:10.048Z,562.7500
2023-04-15T05:41:13.913Z,562.4167
2023-04-15T05:42:17.841Z,561.5000
2023-04-15T05:43:23.268Z,563.0833
2023-04-15T05:44:27.174Z,562.0000
2023-04-15T05:45:31.058Z,562.3333
2023-04-15T05:46:35.233Z,563.0000
2023-04-15T05:47:39.154Z,561.4167
2023-04-15T05:48:43.024Z,563.0000
2023-04-15T05:49:46.916Z,560.1667
2023-04-15T05:50:50.823Z,562.0000
2023-04-15T05:51:54.736Z,563.4167
2023-04-15T05:52:58.642Z,562.0000
2023-04-15T05:54:02.747Z,559.5000
2023-04-15T05:55:06.621Z,557.4167
2023-04-15T05:56:10.754Z,560.5833
2023-04-15T05:57:14.638Z,560.2500
2023-04-15T05:58:18.532Z,559.7500
2023-04-15T05:59:22.412Z,561.0000
2023-04-15T06:00:26.293Z,562.5000
2023-04-15T06:01:30.190Z,559.5833
2023-04-15T06:02:34.126Z,566.6667
2023-04-15T06:03:38.181Z,567.5833
2023-04-15T06:04:42.116Z,566.6667
2023-04-15T06:05:45.999Z,568.0833
2023-04-15T06:06:49.910Z,568.5000
2023-04-15T06:07:53.817Z,566.5000
2023-04-15T06:08:57.720Z,571.5833
2023-04-15T06:10:01.648Z,570.2500
2023-04-15T06:11:05.755Z,571.4167
2023-04-15T06:12:09.641Z,567.7500
2023-04-15T06:13:13.858Z,565.4167
2023-04-15T06:14:17.742Z,560.6667
2023-04-15T06:15:21.641Z,557.6667
2023-04-15T06:16:25.576Z,559.7500
2023-04-15T06:17:29.436Z,558.5000
2023-04-15T06:18:33.316Z,559.4167
2023-04-15T06:19:37.215Z,558.5833
2023-04-15T06:20:41.102Z,561.3333
2023-04-15T06:21:45.016Z,559.5000
2023-04-15T06:22:48.891Z,560.1667
2023-04-15T06:23:53.023Z,559.0000
2023-04-15T06:24:56.899Z,560.4167
2023-04-15T06:26:01.116Z,552.6667
2023-04-15T06:27:05.031Z,553.6667
2023-04-15T06:28:08.917Z,552.2500
2023-04-15T06:29:12.822Z,559.5833
2023-04-15T06:30:16.703Z,563.4167
2023-04-15T06:31:17.129Z,560.0909
2023-04-15T06:32:21.050Z,562.0833
2023-04-15T06:33:24.937Z,562.9167
2023-04-15T06:34:28.807Z,559.4167
2023-04-15T06:35:32.719Z,557.0000
2023-04-15T06:36:36.605Z,561.0000
2023-04-15T06:37:40.521Z,558.3333
2023-04-15T06:38:44.393Z,559.8333
2023-04-15T06:39:48.319Z,557.6667
2023-04-15T06:40:52.401Z,559.8333
2023-04-15T06:41:56.302Z,559.4167
2023-04-15T06:43:00.179Z,559.0833
2023-04-15T06:44:04.301Z,561.3333
2023-04-15T06:45:08.205Z,557.9167
2023-04-15T06:46:12.118Z,560.6667
2023-04-15T06:47:16.071Z,562.0000
2023-04-15T06:48:19.962Z,561.9167
2023-04-15T06:49:23.833Z,560.9167
2023-04-15T06:50:27.750Z,563.5833
2023-04-15T06:51:31.628Z,560.0833
2023-04-15T06:52:35.531Z,555.6667
2023-04-15T06:53:39.412Z,559.2500
2023-04-15T06:54:43.292Z,560.5000
2023-04-15T06:55:47.173Z,563.5000
2023-04-15T06:56:51.078Z,564.8333
2023-04-15T06:57:54.988Z,564.2500
2023-04-15T06:58:58.900Z,562.4167
2023-04-15T07:00:02.750Z,565.5000
2023-04-15T07:01:06.725Z,566.0000
2023-04-15T07:02:10.670Z,569.0833
2023-04-15T07:03:14.642Z,566.9167
2023-04-15T07:04:18.588Z,567.5833
2023-04-15T07:05:22.456Z,571.0000
2023-04-15T07:06:26.340Z,572.3333
2023-04-15T07:07:30.245Z,573.8333
2023-04-15T07:08:34.165Z,571.0000
2023-04-15T07:09:38.082Z,575.4167
2023-04-15T07:10:42.210Z,576.5000
2023-04-15T07:11:46.123Z,574.8333
2023-04-15T07:12:50.016Z,572.5000
2023-04-15T07:13:53.921Z,574.9167
2023-04-15T07:14:57.805Z,575.7500
2023-04-15T07:16:01.919Z,574.1667
2023-04-15T07:17:05.861Z,576.5000
2023-04-15T07:18:10.029Z,573.9167
2023-04-15T07:19:13.906Z,575.2500
2023-04-15T07:20:17.809Z,574.8333
2023-04-15T07:21:21.721Z,576.5000
2023-04-15T07:22:25.600Z,577.2500
2023-04-15T07:23:29.516Z,575.0000
2023-04-15T07:24:33.376Z,577.9167
2023-04-15T07:25:37.490Z,581.6667
2023-04-15T07:26:41.377Z,582.6667
2023-04-15T07:27:45.277Z,582.6667
2023-04-15T07:28:49.502Z,583.7500
2023-04-15T07:29:53.388Z,585.3333
2023-04-15T07:30:57.313Z,584.5000
2023-04-15T07:32:01.202Z,584.0833
2023-04-15T07:33:05.426Z,588.7500
2023-04-15T07:34:09.294Z,586.1667
2023-04-15T07:35:13.172Z,585.5833
2023-04-15T07:36:17.070Z,585.5833
2023-04-15T07:37:20.959Z,586.2500
2023-04-15T07:38:24.853Z,587.8333
2023-04-15T07:39:28.816Z,590.0000
2023-04-15T07:40:32.676Z,593.3333
2023-04-15T07:41:36.616Z,595.7500
2023-04-15T07:42:41.523Z,594.6667
2023-04-15T07:43:45.654Z,596.5833
2023-04-15T07:44:49.525Z,600.8333
2023-04-15T07:45:53.436Z,599.5833
2023-04-15T07:46:57.293Z,603.5000
2023-04-15T07:48:01.470Z,601.1667
2023-04-15T07:49:05.343Z,604.2500
2023-04-15T07:50:09.230Z,605.2500
2023-04-15T07:51:13.175Z,607.3333
2023-04-15T07:52:17.075Z,609.4167
2023-04-15T07:53:20.973Z,611.1667
2023-04-15T07:54:24.869Z,611.6667
2023-04-15T07:55:28.761Z,613.2500
2023-04-15T07:56:32.675Z,611.7500
2023-04-15T07:57:36.542Z,612.2500
2023-04-15T07:58:40.465Z,617.5000
2023-04-15T07:59:44.324Z,617.3333
2023-04-15T08:00:48.482Z,621.0833
2023-04-15T08:01:52.405Z,621.0833
2023-04-15T08:02:56.675Z,620.8333
2023-04-15T08:04:00.783Z,618.0000
2023-04-15T08:05:04.795Z,616.5000
2023-04-15T08:06:08.720Z,618.9167
2023-04-15T08:07:12.610Z,618.9167
2023-04-15T08:08:16.524Z,615.1667
2023-04-15T08:09:20.412Z,618.1667
2023-04-15T08:10:24.424Z,615.9167
2023-04-15T08:11:28.304Z,619.6667
2023-04-15T08:12:32.236Z,618.4167
2023-04-15T08:13:36.124Z,621.8333
2023-04-15T08:14:40.030Z,618.7500
2023-04-15T08:15:43.939Z,622.8333
2023-04-15T08:16:47.833Z,620.9167
2023-04-15T08:17:51.743Z,625.1667
2023-04-15T08:18:55.634Z,627.6667
2023-04-15T08:19:59.516Z,627.4167
2023-04-15T08:21:03.418Z,628.4167
2023-04-15T08:22:10.934Z,629.5833
2023-04-15T08:23:11.794Z,633.3636
2023-04-15T08:24:15.701Z,636.5000
2023-04-15T08:25:19.856Z,634.3333
2023-04-15T08:26:23.733Z,631.7500
2023-04-15T08:27:27.628Z,630.9167
2023-04-15T08:28:31.725Z,632.3333
2023-04-15T08:29:35.612Z,635.2500
2023-04-15T08:30:39.520Z,634.3333
2023-04-15T08:31:43.422Z,631.8333
2023-04-15T08:32:47.590Z,636.6667
2023-04-15T08:33:51.581Z,632.9167
2023-04-15T08:34:55.497Z,629.9167
2023-04-15T08:35:59.381Z,632.5833
2023-04-15T08:37:03.293Z,634.4167
2023-04-15T08:38:07.199Z,634.9167
2023-04-15T08:39:11.114Z,640.2500
2023-04-15T08:40:15.211Z,640.8333
2023-04-15T08:41:19.094Z,640.5000
2023-04-15T08:42:22.980Z,640.3333
2023-04-15T08:43:27.178Z,640.3333
2023-04-15T08:44:31.061Z,639.1667
2023-04-15T08:45:34.964Z,637.9167
2023-04-15T08:46:38.866Z,636.9167
2023-04-15T08:47:42.760Z,641.7500
2023-04-15T08:48:46.643Z,639.0000
2023-04-15T08:49:50.528Z,640.0833
2023-04-15T08:50:54.404Z,639.1667
2023-04-15T08:51:58.310Z,637.1667
2023-04-15T08:53:02.232Z,637.7500
2023-04-15T08:54:06.159Z,635.1667
2023-04-15T08:55:10.657Z,629.9167
2023-04-15T08:56:14.550Z,630.2500
2023-04-15T08:57:18.440Z,629.5833
2023-04-15T08:58:22.573Z,628.0833
2023-04-15T08:59:26.482Z,625.9167
2023-04-15T09:00:30.373Z,628.7500
2023-04-15T09:01:34.376Z,632.5000
2023-04-15T09:02:38.344Z,630.0833
2023-04-15T09:03:42.447Z,629.4167
2023-04-15T09:04:46.369Z,633.7500
2023-04-15T09:05:52.705Z,632.8333
2023-04-15T09:06:51.791Z,635.3636
2023-04-15T09:07:55.715Z,637.9167
2023-04-15T09:08:59.629Z,640.7500
2023-04-15T09:10:03.784Z,639.3333
2023-04-15T09:11:07.701Z,637.6667
2023-04-15T09:12:11.625Z,642.5000
2023-04-15T09:13:15.738Z,642.5000
2023-04-15T09:14:19.648Z,642.9167
2023-04-15T09:15:23.552Z,641.9167
2023-04-15T09:16:27.501Z,639.0833
2023-04-15T09:17:31.446Z,643.2500
2023-04-15T09:18:35.341Z,642.5000
2023-04-15T09:19:39.280Z,644.1667
2023-04-15T09:20:43.144Z,643.8333
2023-04-15T09:21:47.049Z,642.9167
2023-04-15T09:22:50.945Z,645.0833
2023-04-15T09:23:54.853Z,646.6667
2023-04-15T09:24:58.858Z,651.0000
2023-04-15T09:26:02.748Z,649.5000
2023-04-15T09:27:06.631Z,651.2500
2023-04-15T09:28:10.557Z,650.5833
2023-04-15T09:29:14.398Z,651.3333
2023-04-15T09:30:18.302Z,653.0000
2023-04-15T09:31:22.244Z,651.0833
2023-04-15T09:32:26.562Z,653.3333
2023-04-15T09:33:30.447Z,655.4167
2023-04-15T09:34:34.351Z,652.9167
2023-04-15T09:35:38.271Z,652.0000
2023-04-15T09:36:42.154Z,655.5000
2023-04-15T09:37:46.057Z,654.4167
2023-04-15T09:38:49.943Z,656.0000
2023-04-15T09:39:53.854Z,654.6667
2023-04-15T09:40:57.751Z,657.4167
2023-04-15T09:42:01.725Z,654.8333
2023-04-15T09:43:05.852Z,650.8333
2023-04-15T09:44:09.736Z,654.9167
2023-04-15T09:45:13.860Z,654.5000
2023-04-15T09:46:17.780Z,659.1667
2023-04-15T09:47:21.709Z,658.7500
2023-04-15T09:48:25.571Z,658.0000
2023-04-15T09:49:29.522Z,659.2500
2023-04-15T09:50:33.419Z,664.6667
2023-04-15T09:51:37.323Z,662.5833
2023-04-15T09:52:41.243Z,658.2500
2023-04-15T09:53:45.137Z,656.7500
2023-04-15T09:54:49.200Z,655.4167
2023-04-15T09:55:53.114Z,659.0000
2023-04-15T09:56:57.017Z,658.6667
2023-04-15T09:58:00.913Z,662.6667
2023-04-15T09:59:04.820Z,661.9167
2023-04-15T10:00:08.721Z,650.6667
2023-04-15T10:01:12.613Z,656.1667
2023-04-15T10:02:16.626Z,647.5000
2023-04-15T10:03:20.763Z,642.1667
2023-04-15T10:04:25.021Z,648.6667
2023-04-15T10:05:29.831Z,657.5000
2023-04-15T10:06:34.126Z,657.0833
2023-04-15T10:07:38.040Z,650.3333
2023-04-15T10:08:41.952Z,648.6667
2023-04-15T10:09:46.034Z,650.9167
2023-04-15T10:10:49.948Z,644.8333
2023-04-15T10:11:54.112Z,649.0000
2023-04-15T10:12:58.018Z,644.7500
2023-04-15T10:14:02.344Z,646.0833
2023-04-15T10:15:06.366Z,648.5000
2023-04-15T10:16:10.331Z,644.9167
2023-04-15T10:17:14.254Z,649.2500
2023-04-15T10:18:18.152Z,647.0000
2023-04-15T10:19:22.295Z,651.0000
2023-04-15T10:20:26.209Z,648.1667
2023-04-15T10:21:30.086Z,648.5833
2023-04-15T10:22:33.991Z,644.4167
2023-04-15T10:23:37.887Z,646.8333
2023-04-15T10:24:41.787Z,647.8333
2023-04-15T10:25:45.684Z,648.6667
2023-04-15T10:26:49.618Z,649.5833
2023-04-15T10:27:53.480Z,651.5833
2023-04-15T10:28:58.414Z,652.8333
2023-04-15T10:29:58.126Z,654.6364
2023-04-15T10:31:02.048Z,647.3333
2023-04-15T10:32:05.945Z,650.5833
2023-04-15T10:33:09.826Z,652.6667
2023-04-15T10:34:14.015Z,655.8333
2023-04-15T10:35:17.912Z,654.0833
2023-04-15T10:36:21.796Z,650.4167
2023-04-15T10:37:25.668Z,650.7500
2023-04-15T10:38:29.579Z,654.9167
2023-04-15T10:39:33.464Z,650.0833
2023-04-15T10:40:37.354Z,652.6667
2023-04-15T10:41:41.363Z,654.6667
2023-04-15T10:42:45.270Z,652.0833
2023-04-15T10:43:49.160Z,650.0833
2023-04-15T10:44:53.069Z,656.0833
2023-04-15T10:45:56.954Z,655.5000
2023-04-15T10:47:00.954Z,654.0000
2023-04-15T10:48:04.865Z,652.9167
2023-04-15T10:49:08.750Z,652.0000
2023-04-15T10:50:12.909Z,653.1667
2023-04-15T10:51:16.809Z,652.5833
2023-04-15T10:52:20.710Z,653.4167
2023-04-15T10:53:24.598Z,654.3333
2023-04-15T10:54:28.494Z,659.0833
2023-04-15T10:55:32.514Z,657.5833
2023-04-15T10:56:36.676Z,661.0000
2023-04-15T10:57:40.526Z,660.7500
2023-04-15T10:58:44.457Z,664.0833
2023-04-15T10:59:48.564Z,665.3333
2023-04-15T11:00:52.452Z,667.3333
2023-04-15T11:01:56.738Z,663.0000
2023-04-15T11:03:00.971Z,663.3333
2023-04-15T11:04:05.163Z,663.0000
2023-04-15T11:05:09.218Z,666.4167
2023-04-15T11:06:13.112Z,666.9167
2023-04-15T11:07:17.002Z,664.5000
2023-04-15T11:08:20.914Z,666.2500
2023-04-15T11:09:24.765Z,667.6667
2023-04-15T11:10:28.640Z,666.8333
2023-04-15T11:11:32.767Z,665.9167
2023-04-15T11:12:36.696Z,666.0833
2023-04-15T11:13:40.560Z,666.5833
2023-04-15T11:14:44.684Z,669.0000
2023-04-15T11:15:48.561Z,666.3333
2023-04-15T11:16:52.490Z,665.4167
2023-04-15T11:17:56.428Z,665.0000
2023-04-15T11:19:00.376Z,672.9167
2023-04-15T11:20:04.507Z,682.5833
2023-04-15T11:21:08.395Z,694.4167
2023-04-15T11:22:12.286Z,682.1667
2023-04-15T11:23:16.221Z,681.5833
2023-04-15T11:24:20.095Z,676.5833
2023-04-15T11:25:24.228Z,675.5833
2023-04-15T11:26:28.368Z,674.4167
2023-04-15T11:27:32.236Z,672.8333
2023-04-15T11:28:36.806Z,676.9167
2023-04-15T11:29:36.294Z,674.8182
2023-04-15T11:30:40.236Z,672.4167
2023-04-15T11:31:44.137Z,674.9167
2023-04-15T11:32:48.051Z,677.0000
2023-04-15T11:33:51.958Z,675.9167
2023-04-15T11:34:55.845Z,678.5833
2023-04-15T11:35:59.742Z,677.5833
2023-04-15T11:37:03.629Z,678.0833
2023-04-15T11:38:07.523Z,682.1667
2023-04-15T11:39:11.456Z,678.1667
2023-04-15T11:40:15.391Z,676.3333
2023-04-15T11:41:19.237Z,677.5000
2023-04-15T11:42:23.437Z,675.0000
2023-04-15T11:43:27.329Z,677.5000
2023-04-15T11:44:31.468Z,678.2500
2023-04-15T11:45:35.390Z,678.5000
2023-04-15T11:46:39.252Z,674.8333
2023-04-15T11:47:43.192Z,679.0833
2023-04-15T11:48:47.106Z,680.0833
2023-04-15T11:49:50.993Z,694.9167
2023-04-15T11:50:54.904Z,704.1667
2023-04-15T11:51:58.798Z,691.3333
2023-04-15T11:53:02.707Z,693.5000
2023-04-15T11:54:06.720Z,688.8333
2023-04-15T11:55:10.742Z,684.8333
2023-04-15T11:56:14.622Z,684.5000
2023-04-15T11:57:18.756Z,686.8333
2023-04-15T11:58:22.662Z,682.3333
2023-04-15T11:59:38.948Z,683.6667
2023-04-15T12:00:31.255Z,686.4545
2023-04-15T12:01:35.217Z,680.5833
2023-04-15T12:02:39.227Z,682.9167
2023-04-15T12:03:43.276Z,681.8333
2023-04-15T12:04:47.556Z,684.0000
2023-04-15T12:05:51.426Z,684.5833
2023-04-15T12:06:55.338Z,685.8333
2023-04-15T12:07:59.230Z,696.3333
2023-04-15T12:09:03.474Z,699.3333
2023-04-15T12:10:07.348Z,700.0833
2023-04-15T12:11:11.226Z,691.1667
2023-04-15T12:12:15.361Z,704.9167
2023-04-15T12:13:19.244Z,709.6667
2023-04-15T12:14:23.149Z,704.6667
2023-04-15T12:15:27.034Z,699.8333
2023-04-15T12:16:30.933Z,689.3333
2023-04-15T12:17:52.153Z,689.4167
2023-04-15T12:18:39.310Z,691.7273
2023-04-15T12:19:43.420Z,691.7500
2023-04-15T12:20:47.299Z,694.5833
2023-04-15T12:21:51.202Z,694.0833
2023-04-15T12:22:55.086Z,692.2500
2023-04-15T12:23:59.305Z,688.5833
2023-04-15T12:25:03.203Z,689.5833
2023-04-15T12:26:07.087Z,687.5833
2023-04-15T12:27:11.302Z,682.5000
2023-04-15T12:28:15.189Z,690.6667
2023-04-15T12:29:19.139Z,684.6667
2023-04-15T12:30:22.983Z,682.0833
2023-04-15T12:31:26.911Z,680.5833